createdAt,value
2022-12-19T00:00:13.997Z,5.79
2022-12-19T00:00:51.566Z,4.66
2022-12-19T00:01:13.920Z,5.47
2022-12-19T00:01:51.960Z,4.34
2022-12-19T00:02:23.430Z,5.47
2022-12-19T00:02:55.623Z,4.02
2022-12-19T00:03:27.814Z,6.11
2022-12-19T00:03:50.803Z,4.66
2022-12-19T00:04:14.660Z,5.47
2022-12-19T00:04:47.160Z,4.66
2022-12-19T00:05:19.365Z,4.98
2022-12-19T00:05:51.212Z,4.66
2022-12-19T00:06:21.907Z,4.98
2022-12-19T00:06:55.443Z,5.47
2022-12-19T00:07:27.394Z,4.02
2022-12-19T00:07:51.238Z,3.54
2022-12-19T00:08:17.623Z,3.54
2022-12-19T00:08:47.281Z,6.11
2022-12-19T00:09:19.307Z,6.92
2022-12-19T00:09:51.375Z,4.34
2022-12-19T00:10:23.328Z,5.47
2022-12-19T00:10:55.407Z,4.98
2022-12-19T00:11:27.261Z,5.47
2022-12-19T00:11:50.061Z,4.66
2022-12-19T00:12:18.852Z,3.54
2022-12-19T00:12:47.294Z,6.11
2022-12-19T00:13:19.248Z,6.92
2022-12-19T00:13:51.666Z,6.43
2022-12-19T00:14:21.905Z,5.47
2022-12-19T00:14:55.233Z,6.11
2022-12-19T00:15:27.333Z,4.66
2022-12-19T00:15:51.936Z,4.66
2022-12-19T00:16:12.726Z,5.47
2022-12-19T00:16:47.380Z,4.02
2022-12-19T00:17:19.182Z,3.21
2022-12-19T00:17:56.727Z,4.66
2022-12-19T00:18:21.657Z,4.02
2022-12-19T00:18:55.713Z,4.02
2022-12-19T00:19:27.257Z,4.66
2022-12-19T00:19:49.865Z,4.98
2022-12-19T00:20:12.294Z,6.11
2022-12-19T00:20:47.575Z,4.66
2022-12-19T00:21:19.535Z,4.02
2022-12-19T00:21:51.318Z,4.02
2022-12-19T00:22:21.645Z,4.34
2022-12-19T00:22:55.236Z,6.92
2022-12-19T00:23:27.164Z,4.66
2022-12-19T00:23:49.999Z,3.54
2022-12-19T00:24:20.970Z,6.43
2022-12-19T00:24:47.383Z,4.34
2022-12-19T00:25:19.413Z,4.66
2022-12-19T00:25:51.305Z,3.54
2022-12-19T00:26:21.609Z,6.11
2022-12-19T00:26:55.428Z,4.02
2022-12-19T00:27:27.312Z,3.54
2022-12-19T00:27:50.139Z,4.98
2022-12-19T00:28:12.553Z,4.02
2022-12-19T00:28:47.451Z,5.47
2022-12-19T00:29:19.212Z,4.66
2022-12-19T00:29:51.735Z,5.79
2022-12-19T00:30:21.705Z,4.34
2022-12-19T00:30:55.217Z,4.66
2022-12-19T00:31:27.273Z,5.47
2022-12-19T00:31:50.224Z,5.79
2022-12-19T00:32:13.679Z,4.34
2022-12-19T00:32:47.376Z,3.54
2022-12-19T00:33:19.307Z,4.34
2022-12-19T00:33:51.313Z,4.98
2022-12-19T00:34:21.652Z,4.98
2022-12-19T00:34:55.446Z,4.66
2022-12-19T00:35:27.186Z,5.47
2022-12-19T00:35:49.859Z,4.66
2022-12-19T00:36:12.320Z,3.54
2022-12-19T00:36:47.253Z,4.02
2022-12-19T00:37:19.340Z,4.34
2022-12-19T00:37:51.181Z,3.54
2022-12-19T00:38:21.860Z,5.47
2022-12-19T00:38:55.180Z,4.34
2022-12-19T00:39:27.327Z,2.89
2022-12-19T00:39:50.164Z,4.66
2022-12-19T00:40:12.408Z,5.79
2022-12-19T00:40:47.265Z,4.02
2022-12-19T00:41:19.268Z,4.02
2022-12-19T00:41:51.377Z,3.54
2022-12-19T00:42:21.740Z,2.89
2022-12-19T00:42:55.452Z,3.21
2022-12-19T00:43:27.254Z,3.54
2022-12-19T00:43:49.951Z,4.66
2022-12-19T00:44:12.568Z,4.02
2022-12-19T00:44:47.644Z,3.54
2022-12-19T00:45:19.267Z,3.54
2022-12-19T00:45:56.918Z,4.02
2022-12-19T00:46:21.683Z,5.47
2022-12-19T00:46:55.320Z,5.47
2022-12-19T00:47:27.133Z,4.66
2022-12-19T00:47:51.008Z,5.47
2022-12-19T00:48:13.184Z,4.02
2022-12-19T00:48:47.833Z,4.66
2022-12-19T00:49:19.309Z,3.54
2022-12-19T00:49:51.505Z,5.79
2022-12-19T00:50:21.859Z,3.54
2022-12-19T00:50:55.448Z,4.02
2022-12-19T00:51:27.274Z,3.54
2022-12-19T00:51:50.592Z,3.21
2022-12-19T00:52:12.797Z,3.54
2022-12-19T00:52:47.442Z,2.09
2022-12-19T00:53:19.192Z,3.54
2022-12-19T00:53:51.174Z,2.57
2022-12-19T00:54:21.820Z,2.57
2022-12-19T00:54:55.215Z,4.02
2022-12-19T00:55:27.317Z,6.11
2022-12-19T00:55:49.985Z,5.47
2022-12-19T00:56:12.614Z,4.02
2022-12-19T00:56:47.373Z,4.02
2022-12-19T00:57:19.554Z,3.54
2022-12-19T00:57:51.266Z,3.54
2022-12-19T00:58:22.246Z,4.66
2022-12-19T00:58:55.283Z,4.34
2022-12-19T00:59:27.352Z,4.02
2022-12-19T00:59:50.186Z,3.54
2022-12-19T01:00:12.753Z,5.47
2022-12-19T01:00:47.596Z,4.02
2022-12-19T01:01:19.564Z,4.34
2022-12-19T01:01:51.392Z,7.88
2022-12-19T01:02:23.406Z,6.11
2022-12-19T01:02:55.616Z,7.24
2022-12-19T01:03:27.182Z,4.66
2022-12-19T01:04:26.062Z,4.34
2022-12-19T01:04:33.532Z,8.69
2022-12-19T01:04:54.223Z,6.43
2022-12-19T01:05:16.552Z,5.47
2022-12-19T01:05:51.537Z,5.47
2022-12-19T01:06:21.935Z,4.66
2022-12-19T01:06:58.147Z,5.47
2022-12-19T01:07:27.419Z,3.21
2022-12-19T01:07:50.398Z,5.47
2022-12-19T01:08:12.830Z,6.43
2022-12-19T01:08:47.442Z,5.79
2022-12-19T01:09:19.567Z,5.79
2022-12-19T01:09:51.246Z,4.02
2022-12-19T01:10:21.665Z,4.02
2022-12-19T01:10:55.446Z,4.02
2022-12-19T01:11:27.318Z,5.47
2022-12-19T01:11:50.455Z,4.02
2022-12-19T01:12:12.697Z,5.47
2022-12-19T01:12:47.145Z,6.11
2022-12-19T01:13:19.374Z,5.79
2022-12-19T01:13:51.390Z,6.43
2022-12-19T01:14:23.193Z,4.34
2022-12-19T01:15:04.016Z,4.02
2022-12-19T01:15:27.808Z,5.47
2022-12-19T01:15:51.073Z,5.47
2022-12-19T01:16:13.325Z,4.66
2022-12-19T01:16:47.603Z,5.79
2022-12-19T01:17:19.308Z,5.47
2022-12-19T01:17:51.269Z,5.47
2022-12-19T01:18:21.670Z,6.11
2022-12-19T01:18:55.459Z,5.79
2022-12-19T01:19:27.236Z,6.11
2022-12-19T01:19:50.776Z,6.43
2022-12-19T01:20:12.985Z,7.24
2022-12-19T01:20:47.308Z,6.11
2022-12-19T01:21:19.453Z,7.24
2022-12-19T01:21:51.863Z,5.47
2022-12-19T01:22:22.582Z,6.11
2022-12-19T01:22:55.308Z,5.47
2022-12-19T01:23:27.401Z,2.89
2022-12-19T01:23:50.151Z,2.57
2022-12-19T01:24:12.928Z,4.02
2022-12-19T01:24:47.263Z,4.02
2022-12-19T01:25:19.286Z,6.11
2022-12-19T01:25:51.498Z,4.02
2022-12-19T01:26:22.040Z,4.98
2022-12-19T01:26:55.783Z,6.43
2022-12-19T01:27:27.302Z,6.11
2022-12-19T01:27:50.029Z,5.79
2022-12-19T01:28:13.710Z,6.11
2022-12-19T01:28:47.666Z,5.47
2022-12-19T01:29:20.187Z,5.47
2022-12-19T01:29:52.554Z,5.47
2022-12-19T01:30:21.856Z,6.11
2022-12-19T01:30:55.449Z,5.47
2022-12-19T01:31:29.017Z,3.54
2022-12-19T01:31:50.232Z,5.47
2022-12-19T01:32:12.950Z,5.47
2022-12-19T01:32:47.499Z,5.47
2022-12-19T01:33:19.188Z,4.02
2022-12-19T01:33:51.402Z,4.66
2022-12-19T01:34:21.762Z,4.66
2022-12-19T01:34:56.253Z,4.66
2022-12-19T01:35:27.553Z,4.34
2022-12-19T01:35:50.279Z,6.43
2022-12-19T01:36:12.813Z,3.21
2022-12-19T01:36:47.257Z,3.54
2022-12-19T01:37:19.670Z,5.47
2022-12-19T01:37:52.216Z,5.47
2022-12-19T01:38:23.966Z,4.02
2022-12-19T01:38:55.668Z,4.98
2022-12-19T01:39:27.719Z,7.24
2022-12-19T01:39:50.531Z,5.47
2022-12-19T01:40:15.800Z,5.47
2022-12-19T01:40:47.249Z,6.92
2022-12-19T01:41:19.268Z,7.24
2022-12-19T01:41:51.281Z,5.79
2022-12-19T01:42:23.327Z,4.66
2022-12-19T01:42:55.431Z,5.47
2022-12-19T01:43:27.843Z,6.43
2022-12-19T01:43:50.523Z,4.34
2022-12-19T01:44:12.944Z,4.66
2022-12-19T01:44:47.238Z,5.47
2022-12-19T01:45:19.440Z,6.11
2022-12-19T01:45:51.485Z,7.24
2022-12-19T01:46:21.811Z,6.92
2022-12-19T01:46:55.646Z,6.11
2022-12-19T01:47:28.068Z,6.11
2022-12-19T01:47:53.433Z,7.56
2022-12-19T01:48:12.659Z,6.92
2022-12-19T01:48:49.819Z,7.24
2022-12-19T01:49:25.740Z,7.88
2022-12-19T01:49:53.810Z,7.88
2022-12-19T01:50:23.281Z,9.33
2022-12-19T01:51:01.995Z,6.43
2022-12-19T01:51:27.454Z,8.69
2022-12-19T01:51:52.740Z,6.11
2022-12-19T01:52:21.209Z,9.33
2022-12-19T01:52:47.392Z,8.69
2022-12-19T01:53:21.474Z,7.56
2022-12-19T01:53:51.260Z,8.20
2022-12-19T01:54:22.857Z,9.01
2022-12-19T01:54:55.356Z,7.56
2022-12-19T01:55:27.935Z,7.88
2022-12-19T01:55:50.787Z,6.43
2022-12-19T01:56:13.249Z,7.24
2022-12-19T01:56:47.539Z,6.43
2022-12-19T01:57:19.381Z,5.79
2022-12-19T01:57:51.586Z,5.79
2022-12-19T01:58:21.898Z,6.11
2022-12-19T01:58:57.394Z,5.47
2022-12-19T01:59:27.547Z,7.24
2022-12-19T01:59:50.683Z,7.24
2022-12-19T02:00:13.337Z,5.47
2022-12-19T02:00:47.386Z,5.79
2022-12-19T02:01:20.134Z,6.11
2022-12-19T02:01:53.705Z,7.88
2022-12-19T02:02:36.745Z,4.66
2022-12-19T02:02:53.659Z,7.24
2022-12-19T02:03:27.553Z,6.92
2022-12-19T02:03:50.695Z,7.88
2022-12-19T02:04:12.739Z,6.43
2022-12-19T02:04:47.401Z,5.47
2022-12-19T02:05:19.228Z,4.66
2022-12-19T02:05:51.246Z,6.43
2022-12-19T02:06:21.749Z,5.47
2022-12-19T02:06:55.424Z,7.24
2022-12-19T02:07:27.256Z,6.11
2022-12-19T02:07:49.951Z,4.66
2022-12-19T02:08:12.365Z,4.02
2022-12-19T02:08:47.413Z,9.33
2022-12-19T02:09:19.532Z,4.02
2022-12-19T02:09:57.323Z,6.92
2022-12-19T02:10:21.686Z,6.43
2022-12-19T02:10:55.539Z,6.43
2022-12-19T02:11:27.394Z,5.79
2022-12-19T02:11:50.543Z,6.11
2022-12-19T02:12:12.933Z,9.33
2022-12-19T02:12:47.250Z,6.92
2022-12-19T02:13:19.381Z,5.47
2022-12-19T02:13:51.241Z,6.43
2022-12-19T02:14:21.902Z,7.24
2022-12-19T02:14:56.024Z,7.88
2022-12-19T02:15:27.335Z,6.11
2022-12-19T02:15:49.978Z,6.92
2022-12-19T02:16:12.395Z,5.47
2022-12-19T02:16:47.267Z,7.24
2022-12-19T02:17:19.278Z,6.43
2022-12-19T02:17:52.536Z,6.11
2022-12-19T02:18:21.618Z,6.11
2022-12-19T02:18:55.254Z,6.43
2022-12-19T02:19:27.231Z,6.11
2022-12-19T02:19:50.578Z,7.24
2022-12-19T02:20:12.914Z,9.33
2022-12-19T02:20:47.292Z,4.98
2022-12-19T02:21:19.274Z,6.43
2022-12-19T02:21:51.266Z,4.98
2022-12-19T02:22:21.719Z,6.11
2022-12-19T02:22:55.237Z,6.43
2022-12-19T02:23:27.234Z,6.11
2022-12-19T02:23:49.988Z,5.79
2022-12-19T02:24:12.392Z,7.24
2022-12-19T02:24:47.340Z,7.24
2022-12-19T02:25:19.202Z,5.79
2022-12-19T02:25:51.985Z,6.11
2022-12-19T02:26:21.653Z,4.34
2022-12-19T02:26:55.206Z,5.79
2022-12-19T02:27:27.326Z,4.98
2022-12-19T02:27:50.016Z,4.02
2022-12-19T02:28:12.368Z,4.98
2022-12-19T02:28:47.420Z,4.66
2022-12-19T02:29:19.360Z,6.92
2022-12-19T02:29:51.279Z,6.11
2022-12-19T02:30:21.818Z,6.43
2022-12-19T02:30:55.270Z,6.43
2022-12-19T02:31:27.534Z,4.66
2022-12-19T02:31:50.224Z,4.02
2022-12-19T02:32:12.540Z,4.02
2022-12-19T02:32:47.213Z,7.24
2022-12-19T02:33:19.366Z,5.47
2022-12-19T02:33:51.135Z,6.11
2022-12-19T02:34:21.698Z,4.66
2022-12-19T02:34:55.387Z,4.02
2022-12-19T02:35:27.305Z,5.79
2022-12-19T02:35:50.272Z,4.66
2022-12-19T02:36:12.718Z,3.54
2022-12-19T02:36:47.139Z,5.47
2022-12-19T02:37:19.401Z,5.47
2022-12-19T02:37:51.191Z,5.47
2022-12-19T02:38:23.297Z,4.66
2022-12-19T02:38:55.323Z,5.47
2022-12-19T02:39:27.172Z,4.66
2022-12-19T02:39:49.972Z,4.34
2022-12-19T02:40:12.247Z,4.02
2022-12-19T02:40:48.540Z,4.66
2022-12-19T02:41:19.354Z,4.66
2022-12-19T02:41:51.273Z,4.02
2022-12-19T02:42:21.670Z,3.54
2022-12-19T02:42:55.251Z,4.66
2022-12-19T02:43:27.338Z,2.89
2022-12-19T02:43:52.810Z,1.12
2022-12-19T02:44:12.522Z,4.02
2022-12-19T02:44:47.286Z,3.54
2022-12-19T02:45:26.256Z,3.54
2022-12-19T02:45:51.377Z,3.54
2022-12-19T02:46:21.642Z,2.09
2022-12-19T02:46:55.288Z,1.44
2022-12-19T02:47:27.176Z,3.54
2022-12-19T02:47:49.883Z,2.57
2022-12-19T02:48:19.501Z,1.77
2022-12-19T02:48:47.264Z,1.77
2022-12-19T02:49:22.453Z,2.89
2022-12-19T02:49:51.701Z,3.54
2022-12-19T02:50:21.637Z,4.34
2022-12-19T02:50:55.259Z,1.44
2022-12-19T02:51:27.299Z,2.09
2022-12-19T02:51:50.315Z,3.21
2022-12-19T02:52:12.543Z,3.54
2022-12-19T02:52:47.359Z,1.44
2022-12-19T02:53:21.802Z,1.77
2022-12-19T02:53:51.318Z,1.77
2022-12-19T02:54:21.838Z,2.89
2022-12-19T02:54:55.335Z,1.77
2022-12-19T02:55:27.486Z,1.44
2022-12-19T02:55:51.115Z,2.57
2022-12-19T02:56:13.382Z,1.44
2022-12-19T02:56:47.230Z,2.09
2022-12-19T02:57:19.448Z,2.57
2022-12-19T02:57:51.510Z,1.77
2022-12-19T02:58:21.769Z,2.89
2022-12-19T02:58:55.158Z,2.09
2022-12-19T02:59:27.459Z,1.77
2022-12-19T02:59:50.377Z,.32
2022-12-19T03:00:17.339Z,1.44
2022-12-19T03:00:47.862Z,2.57
2022-12-19T03:01:17.472Z,.32
2022-12-19T03:01:59.260Z,1.77
2022-12-19T03:02:25.431Z,2.09
2022-12-19T03:03:01.157Z,1.44
2022-12-19T03:03:42.080Z,1.77
2022-12-19T03:03:56.945Z,1.77
2022-12-19T03:04:31.459Z,2.89
2022-12-19T03:04:54.834Z,3.54
2022-12-19T03:05:19.721Z,2.89
2022-12-19T03:05:51.250Z,2.09
2022-12-19T03:06:21.821Z,1.77
2022-12-19T03:06:55.283Z,3.54
2022-12-19T03:07:27.321Z,2.89
2022-12-19T03:07:50.189Z,3.54
2022-12-19T03:08:12.596Z,4.66
2022-12-19T03:08:47.363Z,3.54
2022-12-19T03:09:19.294Z,4.66
2022-12-19T03:09:51.648Z,3.54
2022-12-19T03:10:21.842Z,4.02
2022-12-19T03:10:55.302Z,4.66
2022-12-19T03:11:27.235Z,4.02
2022-12-19T03:11:50.991Z,4.98
2022-12-19T03:12:17.378Z,4.66
2022-12-19T03:12:47.197Z,4.02
2022-12-19T03:13:19.336Z,5.47
2022-12-19T03:13:51.349Z,4.66
2022-12-19T03:14:21.921Z,4.02
2022-12-19T03:14:55.457Z,4.98
2022-12-19T03:15:27.406Z,4.98
2022-12-19T03:15:50.096Z,5.79
2022-12-19T03:16:12.643Z,4.66
2022-12-19T03:16:47.333Z,5.79
2022-12-19T03:17:19.366Z,5.79
2022-12-19T03:17:51.215Z,5.47
2022-12-19T03:18:21.640Z,4.34
2022-12-19T03:18:55.268Z,4.66
2022-12-19T03:19:27.370Z,4.34
2022-12-19T03:19:50.649Z,4.98
2022-12-19T03:20:13.006Z,5.47
2022-12-19T03:20:47.140Z,5.79
2022-12-19T03:21:19.271Z,5.47
2022-12-19T03:21:51.223Z,5.47
2022-12-19T03:22:21.757Z,4.66
2022-12-19T03:22:55.320Z,4.66
2022-12-19T03:23:27.256Z,5.79
2022-12-19T03:23:49.892Z,6.11
2022-12-19T03:24:12.197Z,6.11
2022-12-19T03:24:47.387Z,5.47
2022-12-19T03:25:19.279Z,6.11
2022-12-19T03:25:51.427Z,6.43
2022-12-19T03:26:21.826Z,6.43
2022-12-19T03:26:55.299Z,6.92
2022-12-19T03:27:27.236Z,4.98
2022-12-19T03:27:50.225Z,4.98
2022-12-19T03:28:12.511Z,6.11
2022-12-19T03:28:47.324Z,6.11
2022-12-19T03:29:19.232Z,5.47
2022-12-19T03:29:51.249Z,5.79
2022-12-19T03:30:21.754Z,5.47
2022-12-19T03:30:55.279Z,4.02
2022-12-19T03:31:27.142Z,4.02
2022-12-19T03:31:49.844Z,4.02
2022-12-19T03:32:12.240Z,4.98
2022-12-19T03:32:47.479Z,7.24
2022-12-19T03:33:19.348Z,6.43
2022-12-19T03:33:51.230Z,5.47
2022-12-19T03:34:21.645Z,6.11
2022-12-19T03:34:55.226Z,4.66
2022-12-19T03:35:27.341Z,7.88
2022-12-19T03:35:50.098Z,7.24
2022-12-19T03:36:12.595Z,6.43
2022-12-19T03:36:47.457Z,6.11
2022-12-19T03:37:19.425Z,5.47
2022-12-19T03:37:51.369Z,7.24
2022-12-19T03:38:21.992Z,5.47
2022-12-19T03:38:55.393Z,6.43
2022-12-19T03:39:27.657Z,6.43
2022-12-19T03:39:50.538Z,4.98
2022-12-19T03:40:12.818Z,6.43
2022-12-19T03:40:47.363Z,5.47
2022-12-19T03:41:19.427Z,5.47
2022-12-19T03:41:51.698Z,3.21
2022-12-19T03:42:21.812Z,4.02
2022-12-19T03:42:55.325Z,3.54
2022-12-19T03:43:27.624Z,4.66
2022-12-19T03:43:50.787Z,4.66
2022-12-19T03:44:13.191Z,5.47
2022-12-19T03:44:47.263Z,5.79
2022-12-19T03:45:19.548Z,5.47
2022-12-19T03:45:51.596Z,4.66
2022-12-19T03:46:21.814Z,4.66
2022-12-19T03:46:55.249Z,5.47
2022-12-19T03:47:27.268Z,6.11
2022-12-19T03:47:50.401Z,3.54
2022-12-19T03:48:13.077Z,7.88
2022-12-19T03:48:47.152Z,8.69
2022-12-19T03:49:19.395Z,6.43
2022-12-19T03:49:51.339Z,7.88
2022-12-19T03:50:21.872Z,7.88
2022-12-19T03:50:55.299Z,4.98
2022-12-19T03:51:27.424Z,7.24
2022-12-19T03:51:52.639Z,4.34
2022-12-19T03:52:12.550Z,5.79
2022-12-19T03:52:47.555Z,7.24
2022-12-19T03:53:19.533Z,5.79
2022-12-19T03:53:51.435Z,6.11
2022-12-19T03:54:21.663Z,5.79
2022-12-19T03:54:55.433Z,4.66
2022-12-19T03:55:27.355Z,7.24
2022-12-19T03:55:52.384Z,7.88
2022-12-19T03:56:14.526Z,6.43
2022-12-19T03:56:47.295Z,6.92
2022-12-19T03:57:19.453Z,7.24
2022-12-19T03:57:52.996Z,4.98
2022-12-19T03:58:22.284Z,6.43
2022-12-19T03:58:55.667Z,6.92
2022-12-19T03:59:27.694Z,5.79
2022-12-19T03:59:50.034Z,6.92
2022-12-19T04:00:12.614Z,7.24
2022-12-19T04:00:48.832Z,5.47
2022-12-19T04:01:19.426Z,6.11
2022-12-19T04:01:52.836Z,8.69
2022-12-19T04:02:24.462Z,8.20
2022-12-19T04:02:55.433Z,6.43
2022-12-19T04:03:27.888Z,7.56
2022-12-19T04:03:50.614Z,6.43
2022-12-19T04:04:12.458Z,7.56
2022-12-19T04:04:47.323Z,8.69
2022-12-19T04:05:19.896Z,6.92
2022-12-19T04:05:51.830Z,7.88
2022-12-19T04:06:21.715Z,9.33
2022-12-19T04:06:55.350Z,7.24
2022-12-19T04:07:27.308Z,7.24
2022-12-19T04:07:50.936Z,7.24
2022-12-19T04:08:13.226Z,7.24
2022-12-19T04:08:47.265Z,7.88
2022-12-19T04:09:22.633Z,7.56
2022-12-19T04:09:51.230Z,7.56
2022-12-19T04:10:21.682Z,7.88
2022-12-19T04:10:55.474Z,6.11
2022-12-19T04:11:27.341Z,6.11
2022-12-19T04:11:50.238Z,6.43
2022-12-19T04:12:12.669Z,6.11
2022-12-19T04:12:47.213Z,6.43
2022-12-19T04:13:19.297Z,5.47
2022-12-19T04:13:51.432Z,7.24
2022-12-19T04:14:21.867Z,5.47
2022-12-19T04:14:55.272Z,7.24
2022-12-19T04:15:27.350Z,5.47
2022-12-19T04:15:50.131Z,6.11
2022-12-19T04:16:12.563Z,6.11
2022-12-19T04:16:47.293Z,6.92
2022-12-19T04:17:19.321Z,5.47
2022-12-19T04:17:51.343Z,5.47
2022-12-19T04:18:21.774Z,5.47
2022-12-19T04:18:55.272Z,5.47
2022-12-19T04:19:27.371Z,4.98
2022-12-19T04:19:50.430Z,5.47
2022-12-19T04:20:12.627Z,6.11
2022-12-19T04:20:47.293Z,4.34
2022-12-19T04:21:19.448Z,4.66
2022-12-19T04:21:51.299Z,4.66
2022-12-19T04:22:21.790Z,3.54
2022-12-19T04:22:55.664Z,4.66
2022-12-19T04:23:27.365Z,5.79
2022-12-19T04:23:50.020Z,6.43
2022-12-19T04:24:12.442Z,6.43
2022-12-19T04:24:47.355Z,6.43
2022-12-19T04:25:19.304Z,5.47
2022-12-19T04:25:51.273Z,5.47
2022-12-19T04:26:21.697Z,4.02
2022-12-19T04:26:55.598Z,6.43
2022-12-19T04:27:27.332Z,6.43
2022-12-19T04:27:50.018Z,4.66
2022-12-19T04:28:12.767Z,4.02
2022-12-19T04:28:47.416Z,5.47
2022-12-19T04:29:19.342Z,4.98
2022-12-19T04:29:51.391Z,4.02
2022-12-19T04:30:21.775Z,5.47
2022-12-19T04:30:55.400Z,6.11
2022-12-19T04:31:27.400Z,5.47
2022-12-19T04:31:50.096Z,4.02
2022-12-19T04:32:12.369Z,3.54
2022-12-19T04:32:47.407Z,3.21
2022-12-19T04:33:19.290Z,4.98
2022-12-19T04:33:51.399Z,4.34
2022-12-19T04:34:21.706Z,6.11
2022-12-19T04:34:55.445Z,4.98
2022-12-19T04:35:27.246Z,6.11
2022-12-19T04:35:50.050Z,5.47
2022-12-19T04:36:12.400Z,4.66
2022-12-19T04:36:47.405Z,3.54
2022-12-19T04:37:19.643Z,3.21
2022-12-19T04:37:51.284Z,4.02
2022-12-19T04:38:21.778Z,2.57
2022-12-19T04:38:55.344Z,4.98
2022-12-19T04:39:27.413Z,5.47
2022-12-19T04:39:50.213Z,4.98
2022-12-19T04:40:12.908Z,5.47
2022-12-19T04:40:47.409Z,5.79
2022-12-19T04:41:19.349Z,4.98
2022-12-19T04:41:51.349Z,5.47
2022-12-19T04:42:21.705Z,4.02
2022-12-19T04:42:55.364Z,4.66
2022-12-19T04:43:27.425Z,6.43
2022-12-19T04:43:50.008Z,6.43
2022-12-19T04:44:13.349Z,4.66
2022-12-19T04:44:47.273Z,5.47
2022-12-19T04:45:19.422Z,6.92
2022-12-19T04:45:55.608Z,5.47
2022-12-19T04:46:21.800Z,4.66
2022-12-19T04:46:55.976Z,3.54
2022-12-19T04:47:27.291Z,5.79
2022-12-19T04:47:49.948Z,4.34
2022-12-19T04:48:12.382Z,6.11
2022-12-19T04:48:47.428Z,4.98
2022-12-19T04:49:19.500Z,4.98
2022-12-19T04:49:52.876Z,4.02
2022-12-19T04:50:21.748Z,4.66
2022-12-19T04:50:55.323Z,4.66
2022-12-19T04:51:27.405Z,3.54
2022-12-19T04:51:50.288Z,2.89
2022-12-19T04:52:12.691Z,4.02
2022-12-19T04:52:47.678Z,4.66
2022-12-19T04:53:19.408Z,4.02
2022-12-19T04:53:51.250Z,4.98
2022-12-19T04:54:21.768Z,4.34
2022-12-19T04:54:55.623Z,2.89
2022-12-19T04:55:27.549Z,5.47
2022-12-19T04:55:51.029Z,4.98
2022-12-19T04:56:13.381Z,3.21
2022-12-19T04:56:47.294Z,4.02
2022-12-19T04:57:19.861Z,4.02
2022-12-19T04:57:51.515Z,4.98
2022-12-19T04:58:22.218Z,7.56
2022-12-19T04:58:55.381Z,8.20
2022-12-19T04:59:27.346Z,8.20
2022-12-19T04:59:50.519Z,8.69
2022-12-19T05:00:14.524Z,5.47
2022-12-19T05:00:47.360Z,4.66
2022-12-19T05:01:19.407Z,3.21
2022-12-19T05:01:53.074Z,3.54
2022-12-19T05:02:22.335Z,4.02
2022-12-19T05:02:55.757Z,4.02
2022-12-19T05:03:28.909Z,6.11
2022-12-19T05:03:55.104Z,6.11
2022-12-19T05:04:12.579Z,7.24
2022-12-19T05:04:47.463Z,7.24
2022-12-19T05:05:19.246Z,6.11
2022-12-19T05:05:51.668Z,3.21
2022-12-19T05:08:47.821Z,2.09
2022-12-19T05:09:19.694Z,1.77
2022-12-19T05:09:51.289Z,1.77
2022-12-19T05:10:21.813Z,3.21
2022-12-19T05:10:55.621Z,5.79
2022-12-19T05:11:27.361Z,6.43
2022-12-19T05:11:50.067Z,4.98
2022-12-19T05:12:15.064Z,6.11
2022-12-19T05:12:47.544Z,3.54
2022-12-19T05:13:19.581Z,4.02
2022-12-19T05:13:51.680Z,1.77
2022-12-19T05:14:22.313Z,5.79
2022-12-19T05:14:55.414Z,4.66
2022-12-19T05:15:27.476Z,2.57
2022-12-19T05:15:50.299Z,4.34
2022-12-19T05:16:12.748Z,4.66
2022-12-19T05:16:47.544Z,6.11
2022-12-19T05:17:19.407Z,6.11
2022-12-19T05:17:51.284Z,7.88
2022-12-19T05:18:21.792Z,7.88
2022-12-19T05:18:55.518Z,6.92
2022-12-19T05:19:27.290Z,7.24
2022-12-19T05:19:50.591Z,6.43
2022-12-19T05:20:12.350Z,6.43
2022-12-19T05:20:47.311Z,7.24
2022-12-19T05:21:19.411Z,7.24
2022-12-19T05:21:51.417Z,6.11
2022-12-19T05:22:23.271Z,4.66
2022-12-19T05:22:55.318Z,7.88
2022-12-19T05:23:27.516Z,7.88
2022-12-19T05:23:50.240Z,8.69
2022-12-19T05:24:12.500Z,9.01
2022-12-19T05:24:47.431Z,6.43
2022-12-19T05:25:19.495Z,6.43
2022-12-19T05:25:51.273Z,4.66
2022-12-19T05:26:21.750Z,6.43
2022-12-19T05:26:55.392Z,6.43
2022-12-19T05:27:27.501Z,6.11
2022-12-19T05:27:51.543Z,6.92
2022-12-19T05:28:12.513Z,6.11
2022-12-19T05:28:47.355Z,7.24
2022-12-19T05:29:19.274Z,7.24
2022-12-19T05:29:51.392Z,5.79
2022-12-19T05:30:21.827Z,6.43
2022-12-19T05:30:55.461Z,6.43
2022-12-19T05:31:27.527Z,7.88
2022-12-19T05:31:50.212Z,7.24
2022-12-19T05:32:12.527Z,7.56
2022-12-19T05:32:47.484Z,7.24
2022-12-19T05:33:19.303Z,8.69
2022-12-19T05:33:51.347Z,7.24
2022-12-19T05:34:21.798Z,5.47
2022-12-19T05:34:55.322Z,6.43
2022-12-19T05:35:27.345Z,6.92
2022-12-19T05:35:50.221Z,6.43
2022-12-19T05:36:12.813Z,5.79
2022-12-19T05:36:47.390Z,6.11
2022-12-19T05:37:19.286Z,7.24
2022-12-19T05:37:51.313Z,7.56
2022-12-19T05:38:25.170Z,5.47
2022-12-19T05:38:55.344Z,5.47
2022-12-19T05:39:27.235Z,6.43
2022-12-19T05:39:50.106Z,6.11
2022-12-19T05:40:12.527Z,6.43
2022-12-19T05:40:47.329Z,6.11
2022-12-19T05:41:19.302Z,5.79
2022-12-19T05:41:51.230Z,5.79
2022-12-19T05:42:22.373Z,5.47
2022-12-19T05:42:55.255Z,5.79
2022-12-19T05:43:27.471Z,4.66
2022-12-19T05:43:50.177Z,5.47
2022-12-19T05:44:12.674Z,5.79
2022-12-19T05:44:47.512Z,6.11
2022-12-19T05:45:19.491Z,6.11
2022-12-19T05:45:51.284Z,6.11
2022-12-19T05:46:21.908Z,6.43
2022-12-19T05:46:55.522Z,7.24
2022-12-19T05:47:27.398Z,7.24
2022-12-19T05:47:50.085Z,7.56
2022-12-19T05:48:12.529Z,7.24
2022-12-19T05:48:47.360Z,6.43
2022-12-19T05:49:19.547Z,6.43
2022-12-19T05:49:51.561Z,6.11
2022-12-19T05:50:21.697Z,6.92
2022-12-19T05:50:55.367Z,6.11
2022-12-19T05:51:27.325Z,6.92
2022-12-19T05:51:50.688Z,6.11
2022-12-19T05:52:12.548Z,6.11
2022-12-19T05:52:47.366Z,5.47
2022-12-19T05:53:24.556Z,5.47
2022-12-19T05:53:51.335Z,6.43
2022-12-19T05:54:21.716Z,6.11
2022-12-19T05:54:55.454Z,4.34
2022-12-19T05:55:27.463Z,5.47
2022-12-19T05:55:51.030Z,5.47
2022-12-19T05:56:13.313Z,5.79
2022-12-19T05:56:47.292Z,4.66
2022-12-19T05:57:19.397Z,3.54
2022-12-19T05:57:51.381Z,5.47
2022-12-19T05:58:22.099Z,6.43
2022-12-19T05:58:55.257Z,4.66
2022-12-19T05:59:27.676Z,6.11
2022-12-19T05:59:50.664Z,4.98
2022-12-19T06:00:13.311Z,4.34
2022-12-19T06:00:47.458Z,5.47
2022-12-19T06:01:19.559Z,4.66
2022-12-19T06:01:52.359Z,6.43
2022-12-19T06:02:23.625Z,4.34
2022-12-19T06:02:55.666Z,4.02
2022-12-19T06:03:27.441Z,4.02
2022-12-19T06:03:50.194Z,4.02
2022-12-19T06:04:12.399Z,6.11
2022-12-19T06:04:47.653Z,4.98
2022-12-19T06:05:19.407Z,4.66
2022-12-19T06:05:46.252Z,5.47
2022-12-19T06:06:22.003Z,6.92
2022-12-19T06:06:56.041Z,5.47
2022-12-19T06:07:27.861Z,5.47
2022-12-19T06:07:50.768Z,5.47
2022-12-19T06:08:13.197Z,5.47
2022-12-19T06:08:48.935Z,4.02
2022-12-19T06:09:20.405Z,3.54
2022-12-19T06:09:51.372Z,1.77
2022-12-19T06:10:23.876Z,2.09
2022-12-19T06:10:55.610Z,4.34
2022-12-19T06:11:27.817Z,5.47
2022-12-19T06:11:50.435Z,5.47
2022-12-19T06:12:13.715Z,5.47
2022-12-19T06:12:48.075Z,5.47
2022-12-19T06:13:24.825Z,6.11
2022-12-19T06:13:51.381Z,5.47
2022-12-19T06:14:22.332Z,4.66
2022-12-19T06:14:55.650Z,6.11
2022-12-19T06:15:27.528Z,4.66
2022-12-19T06:15:50.198Z,5.47
2022-12-19T06:16:13.133Z,5.47
2022-12-19T06:16:47.597Z,5.79
2022-12-19T06:17:20.393Z,4.66
2022-12-19T06:17:51.356Z,4.66
2022-12-19T06:18:22.120Z,4.66
2022-12-19T06:18:55.915Z,3.21
2022-12-19T06:19:27.910Z,4.66
2022-12-19T06:19:50.289Z,5.47
2022-12-19T06:20:12.607Z,5.79
2022-12-19T06:20:47.999Z,4.02
2022-12-19T06:21:19.204Z,4.34
2022-12-19T06:21:51.519Z,4.66
2022-12-19T06:22:22.321Z,4.98
2022-12-19T06:22:56.356Z,3.54
2022-12-19T06:23:27.406Z,4.34
2022-12-19T06:23:50.235Z,4.98
2022-12-19T06:24:12.843Z,4.02
2022-12-19T06:24:47.567Z,4.02
2022-12-19T06:25:19.796Z,6.92
2022-12-19T06:25:51.627Z,4.98
2022-12-19T06:26:24.182Z,4.66
2022-12-19T06:26:55.539Z,4.66
2022-12-19T06:27:27.734Z,5.47
2022-12-19T06:27:50.479Z,4.02
2022-12-19T06:28:12.930Z,5.47
2022-12-19T06:28:47.762Z,3.54
2022-12-19T06:29:19.397Z,4.66
2022-12-19T06:29:52.500Z,7.24
2022-12-19T06:30:22.740Z,7.88
2022-12-19T06:30:55.342Z,7.88
2022-12-19T06:31:29.995Z,7.24
2022-12-19T06:31:50.183Z,6.11
2022-12-19T06:32:13.872Z,6.43
2022-12-19T06:32:47.270Z,4.02
2022-12-19T06:33:19.377Z,8.69
2022-12-19T06:33:51.419Z,7.24
2022-12-19T06:34:39.854Z,7.88
2022-12-19T06:35:04.339Z,5.47
2022-12-19T06:35:24.549Z,8.69
2022-12-19T06:35:53.473Z,6.43
2022-12-19T06:36:31.694Z,7.24
2022-12-19T06:36:54.160Z,8.69
2022-12-19T06:37:16.398Z,10.46
2022-12-19T06:37:51.341Z,9.33
2022-12-19T06:38:21.755Z,6.43
2022-12-19T06:38:55.344Z,9.01
2022-12-19T06:39:27.275Z,7.24
2022-12-19T06:39:49.987Z,6.11
2022-12-19T06:40:17.849Z,7.24
2022-12-19T06:40:47.317Z,4.66
2022-12-19T06:41:19.200Z,2.57
2022-12-19T06:41:51.195Z,7.24